sensor_id;sensor_type;location;lat;lon;timestamp;P1;durP1;ratioP1;P2;durP2;ratioP2
35128;SDS011;21301;43.626;10.580;2023-02-13T00:04:53;22.63;;;13.68;;
35128;SDS011;21301;43.626;10.580;2023-02-13T00:08:02;16.40;;;11.13;;
35128;SDS011;21301;43.626;10.580;2023-02-13T00:14:36;16.27;;;9.27;;
35128;SDS011;21301;43.626;10.580;2023-02-13T00:21:02;15.40;;;10.23;;
35128;SDS011;21301;43.626;10.580;2023-02-13T00:23:58;18.52;;;10.05;;
35128;SDS011;21301;43.626;10.580;2023-02-13T00:26:41;14.60;;;8.93;;
35128;SDS011;21301;43.626;10.580;2023-02-13T00:29:21;13.27;;;8.60;;
35128;SDS011;21301;43.626;10.580;2023-02-13T00:32:03;17.27;;;9.45;;
35128;SDS011;21301;43.626;10.580;2023-02-13T00:35:19;21.23;;;10.77;;
35128;SDS011;21301;43.626;10.580;2023-02-13T00:38:01;17.27;;;9.07;;
35128;SDS011;21301;43.626;10.580;2023-02-13T00:41:42;16.48;;;10.18;;
35128;SDS011;21301;43.626;10.580;2023-02-13T00:44:16;16.70;;;10.05;;
35128;SDS011;21301;43.626;10.580;2023-02-13T00:46:55;17.02;;;9.57;;
35128;SDS011;21301;43.626;10.580;2023-02-13T00:49:55;14.60;;;9.90;;
35128;SDS011;21301;43.626;10.580;2023-02-13T00:52:29;18.85;;;11.93;;
35128;SDS011;21301;43.626;10.580;2023-02-13T00:55:00;19.45;;;10.93;;
35128;SDS011;21301;43.626;10.580;2023-02-13T00:58:06;15.20;;;10.23;;
35128;SDS011;21301;43.626;10.580;2023-02-13T01:04:35;23.30;;;14.38;;
35128;SDS011;21301;43.626;10.580;2023-02-13T01:11:09;17.33;;;10.32;;
35128;SDS011;21301;43.626;10.580;2023-02-13T01:14:17;17.08;;;9.90;;
35128;SDS011;21301;43.626;10.580;2023-02-13T01:16:55;18.13;;;11.80;;
35128;SDS011;21301;43.626;10.580;2023-02-13T01:19:39;19.83;;;9.95;;
35128;SDS011;21301;43.626;10.580;2023-02-13T01:22:32;22.50;;;13.02;;
35128;SDS011;21301;43.626;10.580;2023-02-13T01:25:06;18.73;;;11.52;;
35128;SDS011;21301;43.626;10.580;2023-02-13T01:28:30;17.88;;;10.05;;
35128;SDS011;21301;43.626;10.580;2023-02-13T01:35:32;21.23;;;11.50;;
35128;SDS011;21301;43.626;10.580;2023-02-13T01:46:41;16.23;;;9.57;;
35128;SDS011;21301;43.626;10.580;2023-02-13T02:01:55;21.50;;;10.07;;
35128;SDS011;21301;43.626;10.580;2023-02-13T02:11:04;15.20;;;9.10;;
35128;SDS011;21301;43.626;10.580;2023-02-13T02:13:42;18.20;;;10.20;;
35128;SDS011;21301;43.626;10.580;2023-02-13T02:16:21;19.88;;;10.77;;
35128;SDS011;21301;43.626;10.580;2023-02-13T02:39:02;18.98;;;10.68;;
35128;SDS011;21301;43.626;10.580;2023-02-13T02:53:13;11.25;;;7.55;;
35128;SDS011;21301;43.626;10.580;2023-02-13T02:57:08;13.82;;;8.25;;
35128;SDS011;21301;43.626;10.580;2023-02-13T03:00:33;13.35;;;7.63;;
35128;SDS011;21301;43.626;10.580;2023-02-13T03:03:30;14.32;;;7.15;;
35128;SDS011;21301;43.626;10.580;2023-02-13T03:06:53;14.48;;;7.18;;
35128;SDS011;21301;43.626;10.580;2023-02-13T03:12:53;14.50;;;8.35;;
35128;SDS011;21301;43.626;10.580;2023-02-13T03:15:53;15.25;;;9.40;;
35128;SDS011;21301;43.626;10.580;2023-02-13T03:19:05;29.52;;;18.83;;
35128;SDS011;21301;43.626;10.580;2023-02-13T03:22:26;17.73;;;10.25;;
35128;SDS011;21301;43.626;10.580;2023-02-13T03:32:22;22.55;;;12.48;;
35128;SDS011;21301;43.626;10.580;2023-02-13T03:38:27;25.42;;;12.60;;
35128;SDS011;21301;43.626;10.580;2023-02-13T03:41:44;16.35;;;10.48;;
35128;SDS011;21301;43.626;10.580;2023-02-13T03:46:18;20.50;;;11.38;;
35128;SDS011;21301;43.626;10.580;2023-02-13T03:48:46;20.02;;;11.95;;
35128;SDS011;21301;43.626;10.580;2023-02-13T03:53:58;24.38;;;13.45;;
35128;SDS011;21301;43.626;10.580;2023-02-13T03:56:29;22.73;;;11.63;;
35128;SDS011;21301;43.626;10.580;2023-02-13T03:59:23;20.60;;;11.43;;
35128;SDS011;21301;43.626;10.580;2023-02-13T04:02:07;17.25;;;9.30;;
35128;SDS011;21301;43.626;10.580;2023-02-13T04:07:10;16.25;;;9.68;;
35128;SDS011;21301;43.626;10.580;2023-02-13T04:09:54;19.15;;;9.65;;
35128;SDS011;21301;43.626;10.580;2023-02-13T04:12:30;16.40;;;9.80;;
35128;SDS011;21301;43.626;10.580;2023-02-13T04:15:15;14.52;;;9.00;;
35128;SDS011;21301;43.626;10.580;2023-02-13T04:20:38;11.68;;;7.10;;
35128;SDS011;21301;43.626;10.580;2023-02-13T04:23:08;15.52;;;9.60;;
35128;SDS011;21301;43.626;10.580;2023-02-13T04:25:37;17.17;;;8.15;;
35128;SDS011;21301;43.626;10.580;2023-02-13T04:28:04;14.30;;;6.88;;
35128;SDS011;21301;43.626;10.580;2023-02-13T04:30:30;15.65;;;8.27;;
35128;SDS011;21301;43.626;10.580;2023-02-13T04:32:57;17.50;;;8.80;;
35128;SDS011;21301;43.626;10.580;2023-02-13T04:35:23;20.02;;;10.25;;
35128;SDS011;21301;43.626;10.580;2023-02-13T04:37:49;14.63;;;7.32;;
35128;SDS011;21301;43.626;10.580;2023-02-13T04:40:15;12.00;;;5.97;;
35128;SDS011;21301;43.626;10.580;2023-02-13T04:42:41;16.88;;;8.38;;
35128;SDS011;21301;43.626;10.580;2023-02-13T04:45:07;11.52;;;6.38;;
35128;SDS011;21301;43.626;10.580;2023-02-13T04:47:33;15.90;;;9.10;;
35128;SDS011;21301;43.626;10.580;2023-02-13T04:49:59;15.88;;;7.43;;
35128;SDS011;21301;43.626;10.580;2023-02-13T04:52:24;12.70;;;7.75;;
35128;SDS011;21301;43.626;10.580;2023-02-13T04:54:50;12.10;;;6.93;;
35128;SDS011;21301;43.626;10.580;2023-02-13T04:57:16;17.35;;;8.95;;
35128;SDS011;21301;43.626;10.580;2023-02-13T04:59:42;15.35;;;7.22;;
35128;SDS011;21301;43.626;10.580;2023-02-13T05:02:08;14.95;;;8.23;;
35128;SDS011;21301;43.626;10.580;2023-02-13T05:04:33;15.18;;;7.85;;
35128;SDS011;21301;43.626;10.580;2023-02-13T05:06:59;12.30;;;6.68;;
35128;SDS011;21301;43.626;10.580;2023-02-13T05:09:25;12.77;;;7.53;;
35128;SDS011;21301;43.626;10.580;2023-02-13T05:11:51;12.75;;;6.97;;
35128;SDS011;21301;43.626;10.580;2023-02-13T05:14:18;14.82;;;7.20;;
35128;SDS011;21301;43.626;10.580;2023-02-13T05:16:44;13.98;;;6.45;;
35128;SDS011;21301;43.626;10.580;2023-02-13T05:19:10;11.32;;;6.47;;
35128;SDS011;21301;43.626;10.580;2023-02-13T05:21:36;11.32;;;6.35;;
35128;SDS011;21301;43.626;10.580;2023-02-13T05:26:46;14.68;;;6.95;;
35128;SDS011;21301;43.626;10.580;2023-02-13T05:29:12;12.35;;;6.85;;
35128;SDS011;21301;43.626;10.580;2023-02-13T05:31:54;13.88;;;6.85;;
35128;SDS011;21301;43.626;10.580;2023-02-13T05:34:23;12.25;;;7.13;;
35128;SDS011;21301;43.626;10.580;2023-02-13T05:36:50;13.73;;;7.45;;
35128;SDS011;21301;43.626;10.580;2023-02-13T05:39:16;11.50;;;6.53;;
35128;SDS011;21301;43.626;10.580;2023-02-13T05:41:42;12.98;;;7.43;;
35128;SDS011;21301;43.626;10.580;2023-02-13T05:44:09;15.35;;;7.85;;
35128;SDS011;21301;43.626;10.580;2023-02-13T05:46:36;12.15;;;7.18;;
35128;SDS011;21301;43.626;10.580;2023-02-13T05:49:03;13.77;;;7.03;;
35128;SDS011;21301;43.626;10.580;2023-02-13T05:51:29;12.52;;;7.47;;
35128;SDS011;21301;43.626;10.580;2023-02-13T05:53:55;14.07;;;7.93;;
35128;SDS011;21301;43.626;10.580;2023-02-13T05:56:20;13.50;;;7.00;;
35128;SDS011;21301;43.626;10.580;2023-02-13T05:58:46;15.73;;;7.32;;
35128;SDS011;21301;43.626;10.580;2023-02-13T06:01:16;15.20;;;7.82;;
35128;SDS011;21301;43.626;10.580;2023-02-13T06:03:42;14.65;;;6.95;;
35128;SDS011;21301;43.626;10.580;2023-02-13T06:06:08;14.60;;;8.15;;
35128;SDS011;21301;43.626;10.580;2023-02-13T06:08:34;14.45;;;7.72;;
35128;SDS011;21301;43.626;10.580;2023-02-13T06:11:00;14.45;;;7.20;;
35128;SDS011;21301;43.626;10.580;2023-02-13T06:13:26;12.00;;;6.88;;
35128;SDS011;21301;43.626;10.580;2023-02-13T06:15:52;12.18;;;6.82;;
35128;SDS011;21301;43.626;10.580;2023-02-13T06:18:18;14.73;;;7.78;;
35128;SDS011;21301;43.626;10.580;2023-02-13T06:20:44;12.98;;;7.25;;
35128;SDS011;21301;43.626;10.580;2023-02-13T06:23:10;11.23;;;6.60;;
35128;SDS011;21301;43.626;10.580;2023-02-13T06:25:36;13.13;;;8.07;;
35128;SDS011;21301;43.626;10.580;2023-02-13T06:28:02;14.02;;;7.85;;
35128;SDS011;21301;43.626;10.580;2023-02-13T06:30:29;14.48;;;7.13;;
35128;SDS011;21301;43.626;10.580;2023-02-13T06:32:56;15.27;;;7.97;;
35128;SDS011;21301;43.626;10.580;2023-02-13T06:35:21;15.63;;;7.90;;
35128;SDS011;21301;43.626;10.580;2023-02-13T06:37:47;15.27;;;7.97;;
35128;SDS011;21301;43.626;10.580;2023-02-13T06:40:13;10.93;;;6.95;;
35128;SDS011;21301;43.626;10.580;2023-02-13T06:42:41;11.35;;;5.68;;
35128;SDS011;21301;43.626;10.580;2023-02-13T06:45:07;14.20;;;7.07;;
35128;SDS011;21301;43.626;10.580;2023-02-13T06:47:33;12.40;;;7.32;;
35128;SDS011;21301;43.626;10.580;2023-02-13T06:49:59;12.02;;;6.55;;
35128;SDS011;21301;43.626;10.580;2023-02-13T06:52:26;13.07;;;6.82;;
35128;SDS011;21301;43.626;10.580;2023-02-13T06:54:51;15.23;;;7.10;;
35128;SDS011;21301;43.626;10.580;2023-02-13T06:57:17;14.02;;;7.45;;
35128;SDS011;21301;43.626;10.580;2023-02-13T06:59:43;12.95;;;6.78;;
35128;SDS011;21301;43.626;10.580;2023-02-13T07:02:10;13.23;;;7.15;;
35128;SDS011;21301;43.626;10.580;2023-02-13T07:04:36;13.55;;;8.38;;
35128;SDS011;21301;43.626;10.580;2023-02-13T07:07:02;12.50;;;7.80;;
35128;SDS011;21301;43.626;10.580;2023-02-13T07:09:29;11.85;;;7.28;;
35128;SDS011;21301;43.626;10.580;2023-02-13T07:11:56;9.13;;;6.20;;
35128;SDS011;21301;43.626;10.580;2023-02-13T07:14:22;12.07;;;6.93;;
35128;SDS011;21301;43.626;10.580;2023-02-13T07:16:48;15.88;;;8.30;;
35128;SDS011;21301;43.626;10.580;2023-02-13T07:19:13;28.90;;;17.55;;
35128;SDS011;21301;43.626;10.580;2023-02-13T07:21:39;20.73;;;12.55;;
35128;SDS011;21301;43.626;10.580;2023-02-13T07:24:05;16.08;;;7.88;;
35128;SDS011;21301;43.626;10.580;2023-02-13T07:26:31;10.60;;;6.70;;
35128;SDS011;21301;43.626;10.580;2023-02-13T07:28:57;14.02;;;7.57;;
35128;SDS011;21301;43.626;10.580;2023-02-13T07:31:23;12.70;;;8.00;;
35128;SDS011;21301;43.626;10.580;2023-02-13T07:33:48;13.05;;;8.82;;
35128;SDS011;21301;43.626;10.580;2023-02-13T07:36:14;14.32;;;7.88;;
35128;SDS011;21301;43.626;10.580;2023-02-13T07:38:40;17.67;;;8.63;;
35128;SDS011;21301;43.626;10.580;2023-02-13T07:41:06;10.63;;;7.50;;
35128;SDS011;21301;43.626;10.580;2023-02-13T07:43:32;11.70;;;7.45;;
35128;SDS011;21301;43.626;10.580;2023-02-13T07:45:59;9.82;;;6.80;;
35128;SDS011;21301;43.626;10.580;2023-02-13T07:48:26;12.77;;;8.23;;
35128;SDS011;21301;43.626;10.580;2023-02-13T07:50:52;12.18;;;7.55;;
35128;SDS011;21301;43.626;10.580;2023-02-13T07:53:19;10.30;;;7.25;;
35128;SDS011;21301;43.626;10.580;2023-02-13T07:55:46;13.15;;;8.43;;
35128;SDS011;21301;43.626;10.580;2023-02-13T07:58:12;14.45;;;7.95;;
35128;SDS011;21301;43.626;10.580;2023-02-13T08:00:38;12.45;;;6.65;;
35128;SDS011;21301;43.626;10.580;2023-02-13T08:03:04;12.85;;;7.25;;
35128;SDS011;21301;43.626;10.580;2023-02-13T08:05:30;19.42;;;8.30;;
35128;SDS011;21301;43.626;10.580;2023-02-13T08:07:57;16.48;;;8.60;;
35128;SDS011;21301;43.626;10.580;2023-02-13T08:10:23;15.30;;;8.02;;
35128;SDS011;21301;43.626;10.580;2023-02-13T08:13:07;18.70;;;7.97;;
35128;SDS011;21301;43.626;10.580;2023-02-13T08:15:34;24.63;;;9.60;;
35128;SDS011;21301;43.626;10.580;2023-02-13T08:18:00;22.33;;;7.55;;
35128;SDS011;21301;43.626;10.580;2023-02-13T08:20:26;18.92;;;8.40;;
35128;SDS011;21301;43.626;10.580;2023-02-13T08:22:51;17.35;;;7.13;;
35128;SDS011;21301;43.626;10.580;2023-02-13T08:25:17;20.25;;;9.63;;
35128;SDS011;21301;43.626;10.580;2023-02-13T08:27:44;14.98;;;7.90;;
35128;SDS011;21301;43.626;10.580;2023-02-13T08:30:10;13.95;;;8.73;;
35128;SDS011;21301;43.626;10.580;2023-02-13T08:32:37;12.40;;;7.78;;
35128;SDS011;21301;43.626;10.580;2023-02-13T08:35:03;15.80;;;7.85;;
35128;SDS011;21301;43.626;10.580;2023-02-13T08:37:29;12.00;;;7.30;;
35128;SDS011;21301;43.626;10.580;2023-02-13T08:39:54;11.20;;;8.10;;
35128;SDS011;21301;43.626;10.580;2023-02-13T08:42:20;16.45;;;8.48;;
35128;SDS011;21301;43.626;10.580;2023-02-13T08:44:46;13.73;;;8.05;;
35128;SDS011;21301;43.626;10.580;2023-02-13T08:47:12;11.52;;;7.43;;
35128;SDS011;21301;43.626;10.580;2023-02-13T08:49:38;13.35;;;8.40;;
35128;SDS011;21301;43.626;10.580;2023-02-13T08:52:04;15.43;;;8.65;;
35128;SDS011;21301;43.626;10.580;2023-02-13T08:54:30;17.52;;;9.77;;
35128;SDS011;21301;43.626;10.580;2023-02-13T08:56:57;15.65;;;9.77;;
35128;SDS011;21301;43.626;10.580;2023-02-13T08:59:23;13.40;;;8.60;;
35128;SDS011;21301;43.626;10.580;2023-02-13T09:01:49;11.52;;;8.30;;
35128;SDS011;21301;43.626;10.580;2023-02-13T09:04:15;11.82;;;8.70;;
35128;SDS011;21301;43.626;10.580;2023-02-13T09:06:42;15.15;;;7.60;;
35128;SDS011;21301;43.626;10.580;2023-02-13T09:09:08;14.77;;;8.77;;
35128;SDS011;21301;43.626;10.580;2023-02-13T09:11:34;14.75;;;9.20;;
35128;SDS011;21301;43.626;10.580;2023-02-13T09:14:00;11.75;;;8.45;;
35128;SDS011;21301;43.626;10.580;2023-02-13T09:16:26;12.70;;;8.02;;
35128;SDS011;21301;43.626;10.580;2023-02-13T09:18:53;13.13;;;8.60;;
35128;SDS011;21301;43.626;10.580;2023-02-13T09:21:19;11.40;;;8.02;;
35128;SDS011;21301;43.626;10.580;2023-02-13T09:23:47;11.80;;;7.55;;
35128;SDS011;21301;43.626;10.580;2023-02-13T09:26:15;14.95;;;8.90;;
35128;SDS011;21301;43.626;10.580;2023-02-13T09:28:42;14.20;;;7.80;;
35128;SDS011;21301;43.626;10.580;2023-02-13T09:31:09;11.23;;;7.25;;
35128;SDS011;21301;43.626;10.580;2023-02-13T09:33:36;12.15;;;7.88;;
35128;SDS011;21301;43.626;10.580;2023-02-13T09:36:03;13.73;;;7.57;;
35128;SDS011;21301;43.626;10.580;2023-02-13T09:38:33;13.48;;;7.63;;
35128;SDS011;21301;43.626;10.580;2023-02-13T09:41:01;13.30;;;7.75;;
35128;SDS011;21301;43.626;10.580;2023-02-13T09:43:37;24.90;;;8.55;;
35128;SDS011;21301;43.626;10.580;2023-02-13T09:46:36;15.63;;;8.48;;
35128;SDS011;21301;43.626;10.580;2023-02-13T09:49:05;14.57;;;8.82;;
35128;SDS011;21301;43.626;10.580;2023-02-13T09:51:34;12.20;;;7.72;;
35128;SDS011;21301;43.626;10.580;2023-02-13T09:54:01;15.63;;;8.43;;
35128;SDS011;21301;43.626;10.580;2023-02-13T10:02:03;17.40;;;8.85;;
35128;SDS011;21301;43.626;10.580;2023-02-13T10:05:04;14.23;;;8.82;;
35128;SDS011;21301;43.626;10.580;2023-02-13T10:13:17;12.00;;;7.75;;
35128;SDS011;21301;43.626;10.580;2023-02-13T10:15:50;12.18;;;7.18;;
35128;SDS011;21301;43.626;10.580;2023-02-13T10:18:23;11.88;;;8.48;;
35128;SDS011;21301;43.626;10.580;2023-02-13T10:20:57;12.43;;;8.13;;
35128;SDS011;21301;43.626;10.580;2023-02-13T10:26:21;11.55;;;6.28;;
35128;SDS011;21301;43.626;10.580;2023-02-13T10:31:45;6.43;;;3.47;;
35128;SDS011;21301;43.626;10.580;2023-02-13T10:34:15;7.93;;;3.80;;
35128;SDS011;21301;43.626;10.580;2023-02-13T10:36:45;7.03;;;3.90;;
35128;SDS011;21301;43.626;10.580;2023-02-13T10:42:06;11.35;;;6.05;;
35128;SDS011;21301;43.626;10.580;2023-02-13T10:44:53;9.13;;;5.05;;
35128;SDS011;21301;43.626;10.580;2023-02-13T11:04:16;8.98;;;3.60;;
35128;SDS011;21301;43.626;10.580;2023-02-13T11:06:59;7.07;;;3.40;;
35128;SDS011;21301;43.626;10.580;2023-02-13T11:09:32;6.90;;;3.47;;
35128;SDS011;21301;43.626;10.580;2023-02-13T11:17:24;6.97;;;3.47;;
35128;SDS011;21301;43.626;10.580;2023-02-13T11:19:56;4.78;;;2.50;;
35128;SDS011;21301;43.626;10.580;2023-02-13T11:25:03;5.72;;;3.35;;
35128;SDS011;21301;43.626;10.580;2023-02-13T11:27:33;6.95;;;2.75;;
35128;SDS011;21301;43.626;10.580;2023-02-13T11:30:03;6.18;;;2.78;;
35128;SDS011;21301;43.626;10.580;2023-02-13T11:32:32;4.88;;;2.67;;
35128;SDS011;21301;43.626;10.580;2023-02-13T11:35:15;5.47;;;2.53;;
35128;SDS011;21301;43.626;10.580;2023-02-13T11:40:36;5.43;;;2.58;;
35128;SDS011;21301;43.626;10.580;2023-02-13T11:43:06;6.13;;;2.70;;
35128;SDS011;21301;43.626;10.580;2023-02-13T11:45:32;10.02;;;3.47;;
35128;SDS011;21301;43.626;10.580;2023-02-13T11:47:59;5.22;;;2.85;;
35128;SDS011;21301;43.626;10.580;2023-02-13T11:50:26;6.25;;;3.65;;
35128;SDS011;21301;43.626;10.580;2023-02-13T11:52:56;7.15;;;2.95;;
35128;SDS011;21301;43.626;10.580;2023-02-13T11:55:37;5.95;;;3.38;;
35128;SDS011;21301;43.626;10.580;2023-02-13T12:00:36;5.97;;;2.90;;
35128;SDS011;21301;43.626;10.580;2023-02-13T12:03:39;5.20;;;3.25;;
35128;SDS011;21301;43.626;10.580;2023-02-13T12:08:37;6.97;;;3.38;;
35128;SDS011;21301;43.626;10.580;2023-02-13T12:11:12;9.07;;;3.85;;
35128;SDS011;21301;43.626;10.580;2023-02-13T12:13:46;9.30;;;3.63;;
35128;SDS011;21301;43.626;10.580;2023-02-13T12:19:12;6.07;;;3.30;;
35128;SDS011;21301;43.626;10.580;2023-02-13T12:21:54;7.18;;;3.35;;
35128;SDS011;21301;43.626;10.580;2023-02-13T12:24:45;5.20;;;3.05;;
35128;SDS011;21301;43.626;10.580;2023-02-13T12:35:43;7.55;;;3.17;;
35128;SDS011;21301;43.626;10.580;2023-02-13T12:38:14;7.72;;;3.67;;
35128;SDS011;21301;43.626;10.580;2023-02-13T12:46:19;11.05;;;4.57;;
35128;SDS011;21301;43.626;10.580;2023-02-13T12:56:47;9.15;;;3.70;;
35128;SDS011;21301;43.626;10.580;2023-02-13T13:10:03;8.07;;;3.90;;
35128;SDS011;21301;43.626;10.580;2023-02-13T13:21:05;12.98;;;3.50;;
35128;SDS011;21301;43.626;10.580;2023-02-13T13:23:53;8.35;;;3.72;;
35128;SDS011;21301;43.626;10.580;2023-02-13T13:26:27;6.93;;;3.90;;
35128;SDS011;21301;43.626;10.580;2023-02-13T13:29:00;9.60;;;4.50;;
35128;SDS011;21301;43.626;10.580;2023-02-13T13:31:35;7.00;;;3.65;;
35128;SDS011;21301;43.626;10.580;2023-02-13T13:34:04;7.10;;;3.58;;
35128;SDS011;21301;43.626;10.580;2023-02-13T13:36:48;6.47;;;3.65;;
35128;SDS011;21301;43.626;10.580;2023-02-13T13:39:32;7.15;;;3.75;;
35128;SDS011;21301;43.626;10.580;2023-02-13T13:42:40;8.07;;;3.53;;
35128;SDS011;21301;43.626;10.580;2023-02-13T13:47:55;8.70;;;3.70;;
35128;SDS011;21301;43.626;10.580;2023-02-13T13:50:44;8.85;;;4.40;;
35128;SDS011;21301;43.626;10.580;2023-02-13T13:53:15;7.35;;;3.90;;
35128;SDS011;21301;43.626;10.580;2023-02-13T13:58:35;6.88;;;3.40;;
35128;SDS011;21301;43.626;10.580;2023-02-13T14:03:42;6.38;;;3.00;;
35128;SDS011;21301;43.626;10.580;2023-02-13T14:06:12;5.57;;;2.95;;
35128;SDS011;21301;43.626;10.580;2023-02-13T14:11:06;6.80;;;3.00;;
35128;SDS011;21301;43.626;10.580;2023-02-13T14:13:58;9.40;;;5.13;;
35128;SDS011;21301;43.626;10.580;2023-02-13T14:16:43;6.80;;;2.92;;
35128;SDS011;21301;43.626;10.580;2023-02-13T14:21:55;5.38;;;3.25;;
35128;SDS011;21301;43.626;10.580;2023-02-13T14:27:54;8.60;;;3.50;;
35128;SDS011;21301;43.626;10.580;2023-02-13T14:32:59;6.32;;;3.38;;
35128;SDS011;21301;43.626;10.580;2023-02-13T14:35:45;6.57;;;2.80;;
35128;SDS011;21301;43.626;10.580;2023-02-13T14:38:23;6.10;;;3.42;;
35128;SDS011;21301;43.626;10.580;2023-02-13T14:40:50;6.50;;;3.22;;
35128;SDS011;21301;43.626;10.580;2023-02-13T14:51:45;6.68;;;2.85;;
35128;SDS011;21301;43.626;10.580;2023-02-13T14:54:24;8.75;;;4.10;;
35128;SDS011;21301;43.626;10.580;2023-02-13T14:57:06;7.53;;;3.20;;
35128;SDS011;21301;43.626;10.580;2023-02-13T14:59:42;8.70;;;3.35;;
35128;SDS011;21301;43.626;10.580;2023-02-13T15:04:42;6.88;;;3.65;;
35128;SDS011;21301;43.626;10.580;2023-02-13T15:07:18;6.18;;;3.58;;
35128;SDS011;21301;43.626;10.580;2023-02-13T15:09:49;8.68;;;3.38;;
35128;SDS011;21301;43.626;10.580;2023-02-13T15:12:33;8.07;;;3.63;;
35128;SDS011;21301;43.626;10.580;2023-02-13T15:15:01;6.03;;;3.28;;
35128;SDS011;21301;43.626;10.580;2023-02-13T15:17:41;8.50;;;3.00;;
35128;SDS011;21301;43.626;10.580;2023-02-13T15:20:17;6.28;;;3.60;;
35128;SDS011;21301;43.626;10.580;2023-02-13T15:22:47;6.53;;;3.38;;
35128;SDS011;21301;43.626;10.580;2023-02-13T15:25:22;6.50;;;3.70;;
35128;SDS011;21301;43.626;10.580;2023-02-13T15:27:55;7.07;;;3.80;;
35128;SDS011;21301;43.626;10.580;2023-02-13T15:30:26;6.97;;;4.13;;
35128;SDS011;21301;43.626;10.580;2023-02-13T15:35:39;6.85;;;3.17;;
35128;SDS011;21301;43.626;10.580;2023-02-13T15:40:59;6.72;;;3.20;;
35128;SDS011;21301;43.626;10.580;2023-02-13T15:43:47;6.95;;;3.65;;
35128;SDS011;21301;43.626;10.580;2023-02-13T15:48:46;65.57;;;12.55;;
35128;SDS011;21301;43.626;10.580;2023-02-13T15:51:19;13.40;;;3.85;;
35128;SDS011;21301;43.626;10.580;2023-02-13T15:53:51;8.55;;;3.85;;
35128;SDS011;21301;43.626;10.580;2023-02-13T15:56:21;8.75;;;3.58;;
35128;SDS011;21301;43.626;10.580;2023-02-13T15:58:48;8.45;;;2.88;;
35128;SDS011;21301;43.626;10.580;2023-02-13T16:01:30;15.02;;;9.05;;
35128;SDS011;21301;43.626;10.580;2023-02-13T16:04:04;14.27;;;9.10;;
35128;SDS011;21301;43.626;10.580;2023-02-13T16:06:32;17.55;;;10.30;;
35128;SDS011;21301;43.626;10.580;2023-02-13T16:08:59;16.20;;;9.30;;
35128;SDS011;21301;43.626;10.580;2023-02-13T16:11:35;16.10;;;9.38;;
35128;SDS011;21301;43.626;10.580;2023-02-13T16:19:15;16.40;;;9.95;;
35128;SDS011;21301;43.626;10.580;2023-02-13T16:21:47;16.95;;;10.52;;
35128;SDS011;21301;43.626;10.580;2023-02-13T16:24:13;13.32;;;9.48;;
35128;SDS011;21301;43.626;10.580;2023-02-13T16:26:41;18.48;;;9.88;;
35128;SDS011;21301;43.626;10.580;2023-02-13T16:29:09;20.90;;;9.07;;
35128;SDS011;21301;43.626;10.580;2023-02-13T16:31:40;14.75;;;9.32;;
35128;SDS011;21301;43.626;10.580;2023-02-13T16:34:13;14.70;;;9.60;;
35128;SDS011;21301;43.626;10.580;2023-02-13T16:36:52;16.65;;;9.43;;
35128;SDS011;21301;43.626;10.580;2023-02-13T16:39:28;14.15;;;8.48;;
35128;SDS011;21301;43.626;10.580;2023-02-13T16:41:57;15.73;;;9.00;;
35128;SDS011;21301;43.626;10.580;2023-02-13T16:44:28;14.85;;;9.40;;
35128;SDS011;21301;43.626;10.580;2023-02-13T16:47:04;18.05;;;9.52;;
35128;SDS011;21301;43.626;10.580;2023-02-13T16:49:47;15.88;;;9.18;;
35128;SDS011;21301;43.626;10.580;2023-02-13T16:52:19;18.83;;;9.60;;
35128;SDS011;21301;43.626;10.580;2023-02-13T16:54:53;15.48;;;11.15;;
35128;SDS011;21301;43.626;10.580;2023-02-13T16:57:28;15.70;;;9.98;;
35128;SDS011;21301;43.626;10.580;2023-02-13T17:00:14;16.83;;;9.73;;
35128;SDS011;21301;43.626;10.580;2023-02-13T17:02:44;32.70;;;16.80;;
35128;SDS011;21301;43.626;10.580;2023-02-13T17:07:47;20.48;;;9.27;;
35128;SDS011;21301;43.626;10.580;2023-02-13T17:10:22;15.13;;;10.10;;
35128;SDS011;21301;43.626;10.580;2023-02-13T17:13:02;14.50;;;9.13;;
35128;SDS011;21301;43.626;10.580;2023-02-13T17:15:41;49.78;;;10.90;;
35128;SDS011;21301;43.626;10.580;2023-02-13T17:18:08;45.03;;;11.30;;
35128;SDS011;21301;43.626;10.580;2023-02-13T17:20:35;59.35;;;11.73;;
35128;SDS011;21301;43.626;10.580;2023-02-13T17:23:06;20.63;;;10.35;;
35128;SDS011;21301;43.626;10.580;2023-02-13T17:25:38;23.48;;;10.23;;
35128;SDS011;21301;43.626;10.580;2023-02-13T17:28:20;64.45;;;14.40;;
35128;SDS011;21301;43.626;10.580;2023-02-13T17:30:49;197.05;;;28.65;;
35128;SDS011;21301;43.626;10.580;2023-02-13T17:33:18;181.82;;;29.83;;
35128;SDS011;21301;43.626;10.580;2023-02-13T17:35:49;39.65;;;18.00;;
35128;SDS011;21301;43.626;10.580;2023-02-13T17:38:15;17.58;;;12.23;;
35128;SDS011;21301;43.626;10.580;2023-02-13T17:40:41;15.07;;;9.57;;
35128;SDS011;21301;43.626;10.580;2023-02-13T17:43:09;22.83;;;12.88;;
35128;SDS011;21301;43.626;10.580;2023-02-13T17:45:36;20.30;;;12.13;;
35128;SDS011;21301;43.626;10.580;2023-02-13T17:48:02;20.88;;;13.20;;
35128;SDS011;21301;43.626;10.580;2023-02-13T17:50:29;25.13;;;14.23;;
35128;SDS011;21301;43.626;10.580;2023-02-13T17:52:56;28.05;;;17.38;;
35128;SDS011;21301;43.626;10.580;2023-02-13T17:55:26;24.42;;;16.58;;
35128;SDS011;21301;43.626;10.580;2023-02-13T17:57:54;29.00;;;17.85;;
35128;SDS011;21301;43.626;10.580;2023-02-13T18:00:21;34.45;;;20.77;;
35128;SDS011;21301;43.626;10.580;2023-02-13T18:02:48;29.15;;;17.23;;
35128;SDS011;21301;43.626;10.580;2023-02-13T18:05:15;29.38;;;18.95;;
35128;SDS011;21301;43.626;10.580;2023-02-13T18:07:42;37.28;;;20.70;;
35128;SDS011;21301;43.626;10.580;2023-02-13T18:10:12;30.30;;;19.67;;
35128;SDS011;21301;43.626;10.580;2023-02-13T18:12:41;33.53;;;20.63;;
35128;SDS011;21301;43.626;10.580;2023-02-13T18:15:07;27.15;;;17.52;;
35128;SDS011;21301;43.626;10.580;2023-02-13T18:17:33;27.17;;;15.93;;
35128;SDS011;21301;43.626;10.580;2023-02-13T18:20:00;37.20;;;15.93;;
35128;SDS011;21301;43.626;10.580;2023-02-13T18:22:26;34.00;;;17.63;;
35128;SDS011;21301;43.626;10.580;2023-02-13T18:24:52;28.58;;;18.67;;
35128;SDS011;21301;43.626;10.580;2023-02-13T18:27:18;33.85;;;20.15;;
35128;SDS011;21301;43.626;10.580;2023-02-13T18:29:44;35.28;;;22.35;;
35128;SDS011;21301;43.626;10.580;2023-02-13T18:32:10;38.63;;;22.30;;
35128;SDS011;21301;43.626;10.580;2023-02-13T18:34:36;36.25;;;20.52;;
35128;SDS011;21301;43.626;10.580;2023-02-13T18:37:03;38.28;;;21.48;;
35128;SDS011;21301;43.626;10.580;2023-02-13T18:39:30;39.85;;;22.30;;
35128;SDS011;21301;43.626;10.580;2023-02-13T18:41:56;37.67;;;21.05;;
35128;SDS011;21301;43.626;10.580;2023-02-13T18:44:22;40.03;;;21.30;;
35128;SDS011;21301;43.626;10.580;2023-02-13T18:46:47;33.58;;;19.48;;
35128;SDS011;21301;43.626;10.580;2023-02-13T18:49:13;40.85;;;22.83;;
35128;SDS011;21301;43.626;10.580;2023-02-13T18:51:39;28.83;;;17.83;;
35128;SDS011;21301;43.626;10.580;2023-02-13T18:54:06;38.67;;;20.45;;
35128;SDS011;21301;43.626;10.580;2023-02-13T18:56:32;39.53;;;20.25;;
35128;SDS011;21301;43.626;10.580;2023-02-13T18:58:58;30.63;;;18.67;;
35128;SDS011;21301;43.626;10.580;2023-02-13T19:01:24;28.77;;;16.40;;
35128;SDS011;21301;43.626;10.580;2023-02-13T19:03:51;26.00;;;16.58;;
35128;SDS011;21301;43.626;10.580;2023-02-13T19:06:18;28.05;;;15.35;;